sensor_id;sensor_type;location;lat;lon;timestamp;pressure;altitude;pressure_sealevel;temperature;humidity
71559;BME280;59382;43.852;25.952;2023-11-21T00:01:54;100998.59;;;11.40;58.61
71559;BME280;59382;43.852;25.952;2023-11-21T00:04:19;100981.97;;;11.30;58.71
71559;BME280;59382;43.852;25.952;2023-11-21T00:06:45;100998.41;;;11.35;59.00
71559;BME280;59382;43.852;25.952;2023-11-21T00:09:13;100971.81;;;11.19;58.66
71559;BME280;59382;43.852;25.952;2023-11-21T00:11:41;100980.53;;;11.27;58.59
71559;BME280;59382;43.852;25.952;2023-11-21T00:14:06;100993.41;;;11.32;58.82
71559;BME280;59382;43.852;25.952;2023-11-21T00:16:32;100976.34;;;11.25;58.69
71559;BME280;59382;43.852;25.952;2023-11-21T00:18:57;100987.59;;;11.35;58.61
71559;BME280;59382;43.852;25.952;2023-11-21T00:21:23;100997.56;;;11.41;58.41
71559;BME280;59382;43.852;25.952;2023-11-21T00:23:48;100994.88;;;11.41;58.60
71559;BME280;59382;43.852;25.952;2023-11-21T00:26:14;100995.47;;;11.43;58.48
71559;BME280;59382;43.852;25.952;2023-11-21T00:28:39;101001.28;;;11.40;58.67
71559;BME280;59382;43.852;25.952;2023-11-21T00:31:05;100997.56;;;11.34;58.50
71559;BME280;59382;43.852;25.952;2023-11-21T00:33:31;100987.38;;;11.30;58.49
71559;BME280;59382;43.852;25.952;2023-11-21T00:35:57;100986.97;;;11.33;58.52
71559;BME280;59382;43.852;25.952;2023-11-21T00:38:23;100978.84;;;11.33;58.52
71559;BME280;59382;43.852;25.952;2023-11-21T00:40:49;100986.75;;;11.41;58.00
71559;BME280;59382;43.852;25.952;2023-11-21T00:43:15;100990.47;;;11.46;58.32
71559;BME280;59382;43.852;25.952;2023-11-21T00:45:41;100975.09;;;11.34;57.79
71559;BME280;59382;43.852;25.952;2023-11-21T00:48:07;100980.94;;;11.44;58.12
71559;BME280;59382;43.852;25.952;2023-11-21T00:50:33;100976.38;;;11.38;57.97
71559;BME280;59382;43.852;25.952;2023-11-21T00:52:59;100978.84;;;11.46;58.44
71559;BME280;59382;43.852;25.952;2023-11-21T00:55:24;100989.84;;;11.57;57.76
71559;BME280;59382;43.852;25.952;2023-11-21T00:57:50;100990.91;;;11.63;58.05
71559;BME280;59382;43.852;25.952;2023-11-21T01:00:16;100994.84;;;11.67;57.96
71559;BME280;59382;43.852;25.952;2023-11-21T01:02:44;100984.44;;;11.64;57.53
71559;BME280;59382;43.852;25.952;2023-11-21T01:05:10;100976.72;;;11.61;57.35
71559;BME280;59382;43.852;25.952;2023-11-21T01:07:36;100973.00;;;11.49;57.65
71559;BME280;59382;43.852;25.952;2023-11-21T01:10:03;100982.59;;;11.45;57.32
71559;BME280;59382;43.852;25.952;2023-11-21T01:12:31;100991.31;;;11.40;57.79
71559;BME280;59382;43.852;25.952;2023-11-21T01:14:56;100988.41;;;11.42;57.58
71559;BME280;59382;43.852;25.952;2023-11-21T01:17:25;100993.41;;;11.45;57.59
71559;BME280;59382;43.852;25.952;2023-11-21T01:19:50;100987.56;;;11.48;57.42
71559;BME280;59382;43.852;25.952;2023-11-21T01:22:16;100981.34;;;11.41;57.57
71559;BME280;59382;43.852;25.952;2023-11-21T01:24:43;100985.91;;;11.47;57.59
71559;BME280;59382;43.852;25.952;2023-11-21T01:27:08;100963.50;;;11.33;57.68
71559;BME280;59382;43.852;25.952;2023-11-21T01:29:34;100978.44;;;11.42;57.55
71559;BME280;59382;43.852;25.952;2023-11-21T01:32:02;100975.94;;;11.41;57.35
71559;BME280;59382;43.852;25.952;2023-11-21T01:34:28;100954.34;;;11.34;57.37
71559;BME280;59382;43.852;25.952;2023-11-21T01:36:54;100968.88;;;11.40;57.04
71559;BME280;59382;43.852;25.952;2023-11-21T01:39:19;100956.41;;;11.39;56.90
71559;BME280;59382;43.852;25.952;2023-11-21T01:41:50;100956.41;;;11.39;57.03
71559;BME280;59382;43.852;25.952;2023-11-21T01:44:15;100948.50;;;11.44;56.92
71559;BME280;59382;43.852;25.952;2023-11-21T01:46:42;100944.13;;;11.43;56.91
71559;BME280;59382;43.852;25.952;2023-11-21T01:49:09;100960.13;;;11.51;56.78
71559;BME280;59382;43.852;25.952;2023-11-21T01:51:38;100953.50;;;11.47;57.19
71559;BME280;59382;43.852;25.952;2023-11-21T01:54:05;100954.72;;;11.51;56.82
71559;BME280;59382;43.852;25.952;2023-11-21T01:56:31;100961.81;;;11.45;56.61
71559;BME280;59382;43.852;25.952;2023-11-21T01:58:57;100936.69;;;11.32;56.95
71559;BME280;59382;43.852;25.952;2023-11-21T02:01:22;100946.66;;;11.38;56.91
71559;BME280;59382;43.852;25.952;2023-11-21T02:03:48;100961.59;;;11.47;56.43
71559;BME280;59382;43.852;25.952;2023-11-21T02:06:13;100940.19;;;11.39;56.64
71559;BME280;59382;43.852;25.952;2023-11-21T02:08:39;100948.91;;;11.47;56.78
71559;BME280;59382;43.852;25.952;2023-11-21T02:11:05;100946.44;;;11.39;56.35
71559;BME280;59382;43.852;25.952;2023-11-21T02:13:31;100961.19;;;11.37;56.52
71559;BME280;59382;43.852;25.952;2023-11-21T02:15:57;100950.63;;;11.29;56.87
71559;BME280;59382;43.852;25.952;2023-11-21T02:18:23;100938.16;;;11.21;56.67
71559;BME280;59382;43.852;25.952;2023-11-21T02:20:48;100939.63;;;11.17;56.57
71559;BME280;59382;43.852;25.952;2023-11-21T02:23:14;100936.50;;;11.14;56.74
71559;BME280;59382;43.852;25.952;2023-11-21T02:25:40;100931.09;;;11.14;56.92
71559;BME280;59382;43.852;25.952;2023-11-21T02:28:08;100955.41;;;11.14;56.52
71559;BME280;59382;43.852;25.952;2023-11-21T02:30:33;100952.31;;;11.04;56.77
71559;BME280;59382;43.852;25.952;2023-11-21T02:33:00;100954.78;;;10.99;56.76
71559;BME280;59382;43.852;25.952;2023-11-21T02:35:26;100956.03;;;10.96;56.84
71559;BME280;59382;43.852;25.952;2023-11-21T02:37:55;100946.06;;;10.97;56.56
71559;BME280;59382;43.852;25.952;2023-11-21T02:40:20;100942.34;;;10.98;56.59
71559;BME280;59382;43.852;25.952;2023-11-21T02:42:47;100944.41;;;10.96;56.76
71559;BME280;59382;43.852;25.952;2023-11-21T02:45:14;100942.13;;;10.93;56.84
71559;BME280;59382;43.852;25.952;2023-11-21T02:47:42;100951.03;;;11.00;56.56
71559;BME280;59382;43.852;25.952;2023-11-21T02:50:08;100948.97;;;11.02;56.78
71559;BME280;59382;43.852;25.952;2023-11-21T02:52:35;100957.28;;;11.07;56.49
71559;BME280;59382;43.852;25.952;2023-11-21T02:55:03;100943.16;;;11.05;56.88
71559;BME280;59382;43.852;25.952;2023-11-21T02:57:29;100945.66;;;11.13;56.06
71559;BME280;59382;43.852;25.952;2023-11-21T02:59:55;100964.31;;;11.21;56.54
71559;BME280;59382;43.852;25.952;2023-11-21T03:02:21;100950.81;;;11.21;56.28
71559;BME280;59382;43.852;25.952;2023-11-21T03:04:47;100945.41;;;11.21;56.32
71559;BME280;59382;43.852;25.952;2023-11-21T03:07:15;100941.28;;;11.18;56.62
71559;BME280;59382;43.852;25.952;2023-11-21T03:09:40;100957.66;;;11.23;56.35
71559;BME280;59382;43.852;25.952;2023-11-21T03:12:06;100961.84;;;11.26;56.48
71559;BME280;59382;43.852;25.952;2023-11-21T03:14:32;100956.44;;;11.26;55.96
71559;BME280;59382;43.852;25.952;2023-11-21T03:16:57;100961.41;;;11.29;56.14
71559;BME280;59382;43.852;25.952;2023-11-21T03:19:23;100943.34;;;11.16;56.10
71559;BME280;59382;43.852;25.952;2023-11-21T03:21:49;100954.56;;;11.20;55.91
71559;BME280;59382;43.852;25.952;2023-11-21T03:24:14;100953.53;;;11.21;56.49
71559;BME280;59382;43.852;25.952;2023-11-21T03:26:44;100940.63;;;11.16;55.98
71559;BME280;59382;43.852;25.952;2023-11-21T03:29:10;100908.47;;;11.02;55.95
71559;BME280;59382;43.852;25.952;2023-11-21T03:31:35;100950.63;;;11.29;56.27
71559;BME280;59382;43.852;25.952;2023-11-21T03:34:01;100952.47;;;11.35;55.86
71559;BME280;59382;43.852;25.952;2023-11-21T03:36:27;100953.50;;;11.34;56.16
71559;BME280;59382;43.852;25.952;2023-11-21T03:38:52;100962.41;;;11.47;55.94
71559;BME280;59382;43.852;25.952;2023-11-21T03:41:18;100950.59;;;11.42;55.87
71559;BME280;59382;43.852;25.952;2023-11-21T03:43:43;100957.44;;;11.44;55.43
71559;BME280;59382;43.852;25.952;2023-11-21T03:46:09;100956.19;;;11.40;55.63
71559;BME280;59382;43.852;25.952;2023-11-21T03:48:35;100969.28;;;11.50;55.62
71559;BME280;59382;43.852;25.952;2023-11-21T03:51:00;100952.22;;;11.43;55.51
71559;BME280;59382;43.852;25.952;2023-11-21T03:53:26;100967.59;;;11.55;55.59
71559;BME280;59382;43.852;25.952;2023-11-21T03:55:52;100969.66;;;11.60;55.83
71559;BME280;59382;43.852;25.952;2023-11-21T03:58:17;100943.91;;;11.51;55.29
71559;BME280;59382;43.852;25.952;2023-11-21T04:00:43;100963.63;;;11.58;55.28
71559;BME280;59382;43.852;25.952;2023-11-21T04:03:08;100970.13;;;11.63;55.21
71559;BME280;59382;43.852;25.952;2023-11-21T04:05:34;100968.63;;;11.61;55.30
71559;BME280;59382;43.852;25.952;2023-11-21T04:07:59;100971.97;;;11.63;55.17
71559;BME280;59382;43.852;25.952;2023-11-21T04:10:25;100965.31;;;11.59;55.12
71559;BME280;59382;43.852;25.952;2023-11-21T04:12:50;100981.31;;;11.67;55.15
71559;BME280;59382;43.852;25.952;2023-11-21T04:15:15;100954.28;;;11.54;55.13
71559;BME280;59382;43.852;25.952;2023-11-21T04:17:42;100962.63;;;11.59;54.94
71559;BME280;59382;43.852;25.952;2023-11-21T04:20:09;100966.56;;;11.63;55.16
71559;BME280;59382;43.852;25.952;2023-11-21T04:22:39;100958.88;;;11.66;55.03
71559;BME280;59382;43.852;25.952;2023-11-21T04:25:14;100970.28;;;11.75;55.18
71559;BME280;59382;43.852;25.952;2023-11-21T04:27:40;100955.50;;;11.71;54.63
71559;BME280;59382;43.852;25.952;2023-11-21T04:30:09;100959.28;;;11.70;54.92
71559;BME280;59382;43.852;25.952;2023-11-21T04:32:35;100957.19;;;11.65;55.11
71559;BME280;59382;43.852;25.952;2023-11-21T04:35:01;100968.84;;;11.66;54.93
71559;BME280;59382;43.852;25.952;2023-11-21T04:37:27;100971.56;;;11.66;55.20
71559;BME280;59382;43.852;25.952;2023-11-21T04:39:52;100968.84;;;11.66;55.08
71559;BME280;59382;43.852;25.952;2023-11-21T04:42:18;100950.53;;;11.55;55.10
71559;BME280;59382;43.852;25.952;2023-11-21T04:44:43;100965.91;;;11.61;54.72
71559;BME280;59382;43.852;25.952;2023-11-21T04:47:10;100963.66;;;11.64;54.74
71559;BME280;59382;43.852;25.952;2023-11-21T04:49:35;100982.53;;;11.71;54.48
71559;BME280;59382;43.852;25.952;2023-11-21T04:52:01;100982.13;;;11.74;54.71
71559;BME280;59382;43.852;25.952;2023-11-21T04:54:27;100984.63;;;11.75;54.98
71559;BME280;59382;43.852;25.952;2023-11-21T04:56:52;100983.81;;;11.75;54.82
71559;BME280;59382;43.852;25.952;2023-11-21T04:59:18;100982.53;;;11.71;54.51
71559;BME280;59382;43.852;25.952;2023-11-21T05:01:43;100985.66;;;11.74;54.76
71559;BME280;59382;43.852;25.952;2023-11-21T05:04:09;100977.97;;;11.71;54.92
71559;BME280;59382;43.852;25.952;2023-11-21T05:06:35;100967.63;;;11.62;54.81
71559;BME280;59382;43.852;25.952;2023-11-21T05:09:00;100991.28;;;11.73;54.70
71559;BME280;59382;43.852;25.952;2023-11-21T05:11:26;100973.41;;;11.72;54.67
71559;BME280;59382;43.852;25.952;2023-11-21T05:13:52;100982.97;;;11.81;54.90
71559;BME280;59382;43.852;25.952;2023-11-21T05:16:19;100981.47;;;11.85;54.50
71559;BME280;59382;43.852;25.952;2023-11-21T05:18:44;100967.97;;;11.78;54.47
71559;BME280;59382;43.852;25.952;2023-11-21T05:21:10;100982.09;;;11.87;54.29
71559;BME280;59382;43.852;25.952;2023-11-21T05:23:36;100960.06;;;11.77;54.43
71559;BME280;59382;43.852;25.952;2023-11-21T05:26:03;100954.66;;;11.77;54.39
71559;BME280;59382;43.852;25.952;2023-11-21T05:28:28;100967.97;;;11.78;54.08
71559;BME280;59382;43.852;25.952;2023-11-21T05:30:54;100973.38;;;11.78;54.57
71559;BME280;59382;43.852;25.952;2023-11-21T05:33:20;100977.78;;;11.73;54.59
71559;BME280;59382;43.852;25.952;2023-11-21T05:35:46;100989.22;;;11.68;54.69
71559;BME280;59382;43.852;25.952;2023-11-21T05:38:14;100971.97;;;11.63;54.51
71559;BME280;59382;43.852;25.952;2023-11-21T05:40:40;100981.09;;;11.75;54.77
71559;BME280;59382;43.852;25.952;2023-11-21T05:43:06;100981.28;;;11.80;54.62
71559;BME280;59382;43.852;25.952;2023-11-21T05:45:31;100973.38;;;11.85;54.56
71559;BME280;59382;43.852;25.952;2023-11-21T05:47:58;100977.91;;;11.91;54.41
71559;BME280;59382;43.852;25.952;2023-11-21T05:50:24;100981.25;;;11.93;54.35
71559;BME280;59382;43.852;25.952;2023-11-21T05:52:49;100981.69;;;11.77;54.64
71559;BME280;59382;43.852;25.952;2023-11-21T05:55:15;100992.94;;;11.74;54.85
71559;BME280;59382;43.852;25.952;2023-11-21T05:57:42;100976.75;;;11.54;55.28
71559;BME280;59382;43.852;25.952;2023-11-21T06:00:10;100993.78;;;11.61;55.05
71559;BME280;59382;43.852;25.952;2023-11-21T06:02:46;101004.00;;;11.66;55.08
71559;BME280;59382;43.852;25.952;2023-11-21T06:05:12;101017.25;;;11.80;55.23
71559;BME280;59382;43.852;25.952;2023-11-21T06:07:38;101006.44;;;11.74;55.08
71559;BME280;59382;43.852;25.952;2023-11-21T06:10:05;101029.09;;;11.86;55.11
71559;BME280;59382;43.852;25.952;2023-11-21T06:12:35;101012.69;;;11.81;54.90
71559;BME280;59382;43.852;25.952;2023-11-21T06:15:04;101035.34;;;11.93;55.14
71559;BME280;59382;43.852;25.952;2023-11-21T06:17:33;101022.03;;;11.92;55.06
71559;BME280;59382;43.852;25.952;2023-11-21T06:20:02;101025.09;;;12.02;55.09
71559;BME280;59382;43.852;25.952;2023-11-21T06:22:37;101032.38;;;12.08;54.78
71559;BME280;59382;43.852;25.952;2023-11-21T06:25:04;101023.25;;;12.02;54.59
71559;BME280;59382;43.852;25.952;2023-11-21T06:27:31;101031.09;;;12.10;54.59
71559;BME280;59382;43.852;25.952;2023-11-21T06:29:58;101039.00;;;12.12;54.90
71559;BME280;59382;43.852;25.952;2023-11-21T06:32:23;101026.75;;;12.09;54.81
71559;BME280;59382;43.852;25.952;2023-11-21T06:34:49;101015.31;;;12.07;54.88
71559;BME280;59382;43.852;25.952;2023-11-21T06:37:15;101023.97;;;12.22;54.83
71559;BME280;59382;43.852;25.952;2023-11-21T06:39:40;101009.03;;;12.20;54.99
71559;BME280;59382;43.852;25.952;2023-11-21T06:42:07;101023.97;;;12.29;54.77
71559;BME280;59382;43.852;25.952;2023-11-21T06:44:32;101037.84;;;12.45;54.27
71559;BME280;59382;43.852;25.952;2023-11-21T06:47:00;101015.56;;;12.43;54.69
71559;BME280;59382;43.852;25.952;2023-11-21T06:49:25;101037.06;;;12.69;54.56
71559;BME280;59382;43.852;25.952;2023-11-21T06:51:51;101034.47;;;12.87;53.96
71559;BME280;59382;43.852;25.952;2023-11-21T06:54:18;101025.63;;;12.98;53.61
71559;BME280;59382;43.852;25.952;2023-11-21T06:56:43;101027.28;;;13.06;53.71
71559;BME280;59382;43.852;25.952;2023-11-21T06:59:09;101026.28;;;13.00;53.63
71559;BME280;59382;43.852;25.952;2023-11-21T07:01:36;101039.78;;;13.07;53.89
71559;BME280;59382;43.852;25.952;2023-11-21T07:04:05;101040.94;;;13.17;53.66
71559;BME280;59382;43.852;25.952;2023-11-21T07:06:31;101032.19;;;13.15;53.45
71559;BME280;59382;43.852;25.952;2023-11-21T07:08:57;101027.06;;;13.07;53.69
71559;BME280;59382;43.852;25.952;2023-11-21T07:11:22;101025.56;;;13.11;54.17
71559;BME280;59382;43.852;25.952;2023-11-21T07:13:48;101030.44;;;13.27;53.57
71559;BME280;59382;43.852;25.952;2023-11-21T07:16:13;101016.22;;;13.32;53.69
71559;BME280;59382;43.852;25.952;2023-11-21T07:18:41;101020.25;;;13.47;53.36
71559;BME280;59382;43.852;25.952;2023-11-21T07:21:07;101013.50;;;13.56;53.01
71559;BME280;59382;43.852;25.952;2023-11-21T07:23:33;101022.41;;;13.81;53.00
71559;BME280;59382;43.852;25.952;2023-11-21T07:25:59;101022.94;;;14.08;52.52
71559;BME280;59382;43.852;25.952;2023-11-21T07:28:25;101034.47;;;14.22;52.15
71559;BME280;59382;43.852;25.952;2023-11-21T07:30:53;101017.56;;;14.20;52.13
71559;BME280;59382;43.852;25.952;2023-11-21T07:33:19;101030.69;;;14.23;52.17
71559;BME280;59382;43.852;25.952;2023-11-21T07:35:45;101017.28;;;14.10;52.36
71559;BME280;59382;43.852;25.952;2023-11-21T07:38:11;101025.28;;;14.23;52.71
71559;BME280;59382;43.852;25.952;2023-11-21T07:40:36;101023.94;;;14.32;52.35
71559;BME280;59382;43.852;25.952;2023-11-21T07:43:02;101018.81;;;14.42;51.96
71559;BME280;59382;43.852;25.952;2023-11-21T07:45:27;101024.88;;;14.55;51.83
71559;BME280;59382;43.852;25.952;2023-11-21T07:47:54;101000.66;;;14.54;51.70
71559;BME280;59382;43.852;25.952;2023-11-21T07:50:21;101017.97;;;14.71;51.65
71559;BME280;59382;43.852;25.952;2023-11-21T07:52:48;101012.81;;;14.81;51.50
71559;BME280;59382;43.852;25.952;2023-11-21T07:55:15;101011.88;;;14.87;51.37
71559;BME280;59382;43.852;25.952;2023-11-21T07:57:40;101006.44;;;14.87;51.20
71559;BME280;59382;43.852;25.952;2023-11-21T08:00:06;101006.22;;;14.88;51.25
71559;BME280;59382;43.852;25.952;2023-11-21T08:02:34;101003.88;;;14.92;51.32
71559;BME280;59382;43.852;25.952;2023-11-21T08:05:00;101009.66;;;14.95;51.16
71559;BME280;59382;43.852;25.952;2023-11-21T08:07:27;101004.59;;;14.99;51.08
71559;BME280;59382;43.852;25.952;2023-11-21T08:09:52;101004.97;;;15.02;50.85
71559;BME280;59382;43.852;25.952;2023-11-21T08:12:18;101013.00;;;15.09;50.77
71559;BME280;59382;43.852;25.952;2023-11-21T08:14:45;101003.88;;;15.03;50.76
71559;BME280;59382;43.852;25.952;2023-11-21T08:17:11;101013.13;;;15.14;50.67
71559;BME280;59382;43.852;25.952;2023-11-21T08:19:37;101014.06;;;15.08;50.32
71559;BME280;59382;43.852;25.952;2023-11-21T08:22:03;101005.44;;;14.99;50.53
71559;BME280;59382;43.852;25.952;2023-11-21T08:24:29;101003.75;;;14.98;50.45
71559;BME280;59382;43.852;25.952;2023-11-21T08:26:55;101007.16;;;14.94;50.50
71559;BME280;59382;43.852;25.952;2023-11-21T08:29:21;101020.44;;;15.02;50.50
71559;BME280;59382;43.852;25.952;2023-11-21T08:31:49;101023.28;;;15.07;50.50
71559;BME280;59382;43.852;25.952;2023-11-21T08:34:15;101016.91;;;15.13;50.35
71559;BME280;59382;43.852;25.952;2023-11-21T08:36:44;101005.13;;;15.19;50.29
71559;BME280;59382;43.852;25.952;2023-11-21T08:39:10;101001.00;;;15.28;50.12
71559;BME280;59382;43.852;25.952;2023-11-21T08:41:36;100981.22;;;15.21;49.84
71559;BME280;59382;43.852;25.952;2023-11-21T08:44:02;101003.03;;;15.44;49.77
71559;BME280;59382;43.852;25.952;2023-11-21T08:46:32;100980.34;;;15.38;49.46
71559;BME280;59382;43.852;25.952;2023-11-21T08:49:01;100989.66;;;15.54;49.44
71559;BME280;59382;43.852;25.952;2023-11-21T08:51:26;100990.50;;;15.66;49.41
71559;BME280;59382;43.852;25.952;2023-11-21T08:53:52;100995.47;;;15.69;49.42
71559;BME280;59382;43.852;25.952;2023-11-21T08:56:18;100982.94;;;15.68;49.26
71559;BME280;59382;43.852;25.952;2023-11-21T08:58:45;100980.22;;;15.68;49.32
71559;BME280;59382;43.852;25.952;2023-11-21T09:01:12;100978.78;;;15.65;49.45
71559;BME280;59382;43.852;25.952;2023-11-21T09:03:38;100980.94;;;15.63;49.38
71559;BME280;59382;43.852;25.952;2023-11-21T09:06:04;100978.31;;;15.57;49.50
71559;BME280;59382;43.852;25.952;2023-11-21T09:08:30;100963.28;;;15.43;49.56
71559;BME280;59382;43.852;25.952;2023-11-21T09:10:55;100961.63;;;15.42;49.86
71559;BME280;59382;43.852;25.952;2023-11-21T09:13:21;100983.88;;;15.50;49.71
71559;BME280;59382;43.852;25.952;2023-11-21T09:15:46;100968.25;;;15.46;49.64
71559;BME280;59382;43.852;25.952;2023-11-21T09:18:15;100977.59;;;15.61;49.53
71559;BME280;59382;43.852;25.952;2023-11-21T09:20:42;100971.22;;;15.67;49.46
71559;BME280;59382;43.852;25.952;2023-11-21T09:23:09;100967.28;;;15.75;49.32
71559;BME280;59382;43.852;25.952;2023-11-21T09:25:35;100947.66;;;15.73;49.18
71559;BME280;59382;43.852;25.952;2023-11-21T09:28:01;100945.88;;;15.79;49.26
71559;BME280;59382;43.852;25.952;2023-11-21T09:30:26;100946.81;;;15.84;49.14
71559;BME280;59382;43.852;25.952;2023-11-21T09:32:52;100965.22;;;15.94;49.14
71559;BME280;59382;43.852;25.952;2023-11-21T09:35:18;100963.94;;;15.96;48.95
71559;BME280;59382;43.852;25.952;2023-11-21T09:37:44;100964.38;;;16.05;48.83
71559;BME280;59382;43.852;25.952;2023-11-21T09:40:11;100952.31;;;16.12;49.03
71559;BME280;59382;43.852;25.952;2023-11-21T09:42:57;100958.19;;;16.21;48.50
71559;BME280;59382;43.852;25.952;2023-11-21T09:45:28;100937.97;;;16.17;48.48
71559;BME280;59382;43.852;25.952;2023-11-21T09:47:55;100945.75;;;16.25;48.67
71559;BME280;59382;43.852;25.952;2023-11-21T09:50:21;100915.75;;;16.08;48.62
71559;BME280;59382;43.852;25.952;2023-11-21T09:53:13;100934.66;;;16.15;47.87
71559;BME280;59382;43.852;25.952;2023-11-21T09:55:44;100936.56;;;16.03;48.56
71559;BME280;59382;43.852;25.952;2023-11-21T09:58:10;100935.91;;;15.96;48.93
71559;BME280;59382;43.852;25.952;2023-11-21T10:00:43;100927.25;;;15.99;48.95
71559;BME280;59382;43.852;25.952;2023-11-21T10:03:10;100926.03;;;16.06;48.84
71559;BME280;59382;43.852;25.952;2023-11-21T10:05:36;100899.31;;;16.03;48.56
71559;BME280;59382;43.852;25.952;2023-11-21T10:08:09;100907.59;;;16.08;48.64
71559;BME280;59382;43.852;25.952;2023-11-21T10:10:38;100913.69;;;16.15;48.45
71559;BME280;59382;43.852;25.952;2023-11-21T10:13:13;100890.06;;;16.04;48.54
71559;BME280;59382;43.852;25.952;2023-11-21T10:15:46;100889.09;;;16.10;48.50
71559;BME280;59382;43.852;25.952;2023-11-21T10:18:16;100894.81;;;15.97;48.68
71559;BME280;59382;43.852;25.952;2023-11-21T10:20:41;100896.06;;;15.78;48.83
71559;BME280;59382;43.852;25.952;2023-11-21T10:23:09;100893.72;;;15.70;48.97
71559;BME280;59382;43.852;25.952;2023-11-21T10:25:37;100895.16;;;15.61;49.11
71559;BME280;59382;43.852;25.952;2023-11-21T10:28:03;100903.78;;;15.58;49.24
71559;BME280;59382;43.852;25.952;2023-11-21T10:30:34;100881.22;;;15.46;49.21
71559;BME280;59382;43.852;25.952;2023-11-21T10:33:07;100876.63;;;15.46;48.96
71559;BME280;59382;43.852;25.952;2023-11-21T10:35:46;100881.81;;;15.48;49.15
71559;BME280;59382;43.852;25.952;2023-11-21T10:38:13;100887.38;;;15.53;49.04
71559;BME280;59382;43.852;25.952;2023-11-21T10:40:40;100890.31;;;15.63;49.18
71559;BME280;59382;43.852;25.952;2023-11-21T10:43:10;100877.78;;;15.62;48.99
71559;BME280;59382;43.852;25.952;2023-11-21T10:45:37;100876.34;;;15.71;49.04
71559;BME280;59382;43.852;25.952;2023-11-21T10:48:08;100877.88;;;15.79;48.74
71559;BME280;59382;43.852;25.952;2023-11-21T10:50:37;100872.03;;;15.87;48.67
71559;BME280;59382;43.852;25.952;2023-11-21T10:53:04;100871.78;;;15.88;48.70
71559;BME280;59382;43.852;25.952;2023-11-21T10:55:31;100853.34;;;15.90;48.73
71559;BME280;59382;43.852;25.952;2023-11-21T10:58:01;100860.34;;;16.03;48.45
71559;BME280;59382;43.852;25.952;2023-11-21T11:00:29;100854.13;;;16.02;48.48
71559;BME280;59382;43.852;25.952;2023-11-21T11:02:56;100859.75;;;16.12;48.56
71559;BME280;59382;43.852;25.952;2023-11-21T11:05:27;100845.53;;;16.10;48.46
71559;BME280;59382;43.852;25.952;2023-11-21T11:08:04;100853.22;;;16.13;48.34
71559;BME280;59382;43.852;25.952;2023-11-21T11:10:30;100845.28;;;16.12;48.33
71559;BME280;59382;43.852;25.952;2023-11-21T11:12:59;100851.69;;;16.17;48.39
71559;BME280;59382;43.852;25.952;2023-11-21T11:15:26;100847.03;;;16.18;48.48
71559;BME280;59382;43.852;25.952;2023-11-21T11:17:54;100842.59;;;16.28;48.36
71559;BME280;59382;43.852;25.952;2023-11-21T11:20:29;100834.84;;;16.37;48.16
71559;BME280;59382;43.852;25.952;2023-11-21T11:23:22;100824.28;;;16.40;48.02
71559;BME280;59382;43.852;25.952;2023-11-21T11:28:47;100823.19;;;16.53;47.66
71559;BME280;59382;43.852;25.952;2023-11-21T11:31:48;100830.78;;;16.51;47.42
71559;BME280;59382;43.852;25.952;2023-11-21T11:34:25;100820.03;;;16.44;47.50
71559;BME280;59382;43.852;25.952;2023-11-21T11:36:59;100797.50;;;16.32;47.78
71559;BME280;59382;43.852;25.952;2023-11-21T11:39:36;100791.09;;;16.27;47.39
71559;BME280;59382;43.852;25.952;2023-11-21T11:42:04;100796.91;;;16.30;47.67
71559;BME280;59382;43.852;25.952;2023-11-21T11:50:07;100799.16;;;16.50;47.26
71559;BME280;59382;43.852;25.952;2023-11-21T11:52:46;100794.63;;;16.55;47.18
71559;BME280;59382;43.852;25.952;2023-11-21T11:55:14;100788.53;;;16.65;47.09
71559;BME280;59382;43.852;25.952;2023-11-21T11:57:43;100782.88;;;16.71;47.00
71559;BME280;59382;43.852;25.952;2023-11-21T12:02:42;100779.25;;;16.82;46.77
71559;BME280;59382;43.852;25.952;2023-11-21T12:05:13;100783.69;;;16.88;46.71
71559;BME280;59382;43.852;25.952;2023-11-21T12:07:48;100772.28;;;16.91;46.44
71559;BME280;59382;43.852;25.952;2023-11-21T12:10:18;100766.34;;;16.94;46.65
71559;BME280;59382;43.852;25.952;2023-11-21T12:12:47;100763.16;;;17.02;46.21
71559;BME280;59382;43.852;25.952;2023-11-21T12:15:14;100759.03;;;17.00;46.35
71559;BME280;59382;43.852;25.952;2023-11-21T12:17:41;100770.06;;;17.10;46.05
71559;BME280;59382;43.852;25.952;2023-11-21T12:20:12;100755.56;;;17.04;46.07
71559;BME280;59382;43.852;25.952;2023-11-21T12:22:49;100753.41;;;17.06;46.02
71559;BME280;59382;43.852;25.952;2023-11-21T12:25:25;100760.19;;;17.04;45.77
71559;BME280;59382;43.852;25.952;2023-11-21T12:27:54;100754.94;;;16.97;46.14
71559;BME280;59382;43.852;25.952;2023-11-21T12:30:28;100753.47;;;16.90;45.81
71559;BME280;59382;43.852;25.952;2023-11-21T12:32:56;100737.78;;;16.80;46.00
71559;BME280;59382;43.852;25.952;2023-11-21T12:35:27;100738.78;;;16.74;46.00
71559;BME280;59382;43.852;25.952;2023-11-21T12:37:54;100739.28;;;16.71;46.00
71559;BME280;59382;43.852;25.952;2023-11-21T12:40:20;100737.31;;;16.67;46.18
71559;BME280;59382;43.852;25.952;2023-11-21T12:42:52;100718.84;;;16.52;45.84
71559;BME280;59382;43.852;25.952;2023-11-21T12:45:20;100714.66;;;16.45;46.01
71559;BME280;59382;43.852;25.952;2023-11-21T12:47:50;100718.19;;;16.45;46.08
71559;BME280;59382;43.852;25.952;2023-11-21T12:50:20;100710.91;;;16.34;45.96
71559;BME280;59382;43.852;25.952;2023-11-21T12:52:50;100716.09;;;16.36;46.10